Irati, Brazil
Current Conditions -  °F | °C
As of 5:00 PM on Sunday 21 Dec 2014 (Local Time) from SBBI Reporting Station
Thunderstorm Thunderstorm  
Wind Chill: 77°   Ceiling: 1600
Heat Index: 79°   Visibility: 4mi
Dew Point: 66°   Wind: 6mph
Humidity: 69%   Direction: 330°NNW
Pressure: 29.83"   Gusts: 17mph
Location:  25.47°S, 50.66°W
Report Text: SBBI 211900Z 33005G15KT 6000 -SHRA VCTS BKN016 FEW030TCU FEW040CB BKN100 25/19 Q1010
Loading
Personal Weather Stations






























Interactive Weather Map New forecast layout! Learn more

10-Day Weather Forecast

Advertisements
Track Severe Weather on mobile